Sunbury, Australia
Current Conditions -  °F | °C
As of 10:34 PM on Saturday 25 Oct 2014 (Local Time) from YMML Reporting Station
Broken Clouds Broken Clouds  
Wind Chill: 55°   Ceiling: 1900
Heat Index: 55°   Visibility: 6mi
Dew Point: 50°   Wind: 6mph
Humidity: 82%   Direction: 200°SSW
Pressure: 30"   Gusts: NA
Location:  37.58°S, 144.73°E
Report Text: YMML 251134Z 20005KT 9999 SCT015 BKN019 13/10 Q1016 FM1300 16008KT 9999 BKN015
Loading
Personal Weather Stations






























Interactive Weather Map
Tropical Storm Tracking
New forecast layout! Learn more

10-Day Weather Forecast

Advertisements
Track Severe Weather on mobile